Time,TemperatureF,DewpointF,PressureIn,WindDirection,WindDirectionDegrees,WindSpeedMPH,WindSpeedGustMPH,Humidity,HourlyPrecipIn,Conditions,Clouds,dailyrainin,SoftwareType,DateUTC
2013-01-23 00:02:00,25.2,17.7,29.98,NE,45,0.0,0.0,73,0.00,,,0.00,WUHU21623XXSP,2013-01-23 08:02:00,
2013-01-23 00:07:00,25.2,17.7,29.98,NE,45,0.0,0.0,73,0.00,,,0.00,WUHU21623XXSP,2013-01-23 08:07:00,
2013-01-23 00:12:00,25.0,17.5,29.98,NE,45,0.0,0.0,73,0.00,,,0.00,WUHU21623XXSP,2013-01-23 08:12:00,
2013-01-23 00:18:00,25.0,17.5,29.97,NE,45,0.0,0.0,73,0.00,,,0.00,WUHU21623XXSP,2013-01-23 08:18:00,
2013-01-23 00:23:00,25.0,17.5,29.98,NE,45,0.0,0.0,73,0.00,,,0.00,WUHU21623XXSP,2013-01-23 08:23:00,
2013-01-23 00:28:00,25.0,17.5,29.98,NE,45,0.0,0.0,73,0.00,,,0.00,WUHU21623XXSP,2013-01-23 08:28:00,
2013-01-23 00:33:00,25.0,17.5,29.98,NE,45,0.0,0.0,73,0.00,,,0.00,WUHU21623XXSP,2013-01-23 08:33:00,
2013-01-23 00:39:00,25.0,17.5,29.98,NE,45,0.0,0.0,73,0.00,,,0.00,WUHU21623XXSP,2013-01-23 08:39:00,
2013-01-23 00:44:00,25.2,18.0,29.98,NE,45,0.0,0.0,74,0.00,,,0.00,WUHU21623XXSP,2013-01-23 08:44:00,
2013-01-23 00:49:00,25.2,18.0,29.98,NE,45,0.0,0.0,74,0.00,,,0.00,WUHU21623XXSP,2013-01-23 08:49:00,
2013-01-23 00:54:00,25.0,17.8,29.97,NE,45,0.0,0.0,74,0.00,,,0.00,WUHU21623XXSP,2013-01-23 08:54:00,
2013-01-23 01:00:00,25.2,18.0,29.97,NE,45,0.0,0.0,74,0.00,,,0.00,WUHU21623XXSP,2013-01-23 09:00:00,
2013-01-23 01:05:00,25.2,18.0,29.98,NE,45,0.0,0.0,74,0.00,,,0.00,WUHU21623XXSP,2013-01-23 09:05:00,
2013-01-23 01:10:00,25.3,18.1,29.98,NE,45,0.0,0.0,74,0.00,,,0.00,WUHU21623XXSP,2013-01-23 09:10:00,
2013-01-23 01:15:00,25.3,18.1,29.97,NE,45,0.0,0.0,74,0.00,,,0.00,WUHU21623XXSP,2013-01-23 09:15:00,
2013-01-23 01:20:00,25.3,18.1,29.97,NE,45,0.0,0.0,74,0.00,,,0.00,WUHU21623XXSP,2013-01-23 09:20:00,
2013-01-23 01:26:00,25.3,18.1,29.97,NE,45,0.0,0.0,74,0.00,,,0.00,WUHU21623XXSP,2013-01-23 09:26:00,
2013-01-23 01:31:00,25.3,18.1,29.97,NE,45,0.0,0.0,74,0.00,,,0.00,WUHU21623XXSP,2013-01-23 09:31:00,
2013-01-23 01:36:00,25.3,18.1,29.96,NE,45,0.0,0.0,74,0.00,,,0.00,WUHU21623XXSP,2013-01-23 09:36:00,
2013-01-23 01:42:00,25.3,18.1,29.96,NE,45,0.0,0.0,74,0.00,,,0.00,WUHU21623XXSP,2013-01-23 09:42:00,
2013-01-23 01:47:00,25.3,18.1,29.97,NE,45,0.0,0.0,74,0.00,,,0.00,WUHU21623XXSP,2013-01-23 09:47:00,
2013-01-23 01:52:00,25.3,18.1,29.96,NE,45,0.0,0.0,74,0.00,,,0.00,WUHU21623XXSP,2013-01-23 09:52:00,
2013-01-23 01:57:00,25.3,18.1,29.96,NE,45,0.0,0.0,74,0.00,,,0.00,WUHU21623XXSP,2013-01-23 09:57:00,
2013-01-23 02:02:00,25.3,18.1,29.97,NE,45,0.0,0.0,74,0.00,,,0.00,WUHU21623XXSP,2013-01-23 10:02:00,
2013-01-23 02:08:00,25.3,18.1,29.96,NE,45,0.0,0.0,74,0.00,,,0.00,WUHU21623XXSP,2013-01-23 10:08:00,
2013-01-23 02:13:00,25.3,18.1,29.97,NE,45,0.0,0.0,74,0.00,,,0.00,WUHU21623XXSP,2013-01-23 10:13:00,
2013-01-23 02:18:00,25.3,18.1,29.97,NE,45,0.0,0.0,74,0.00,,,0.00,WUHU21623XXSP,2013-01-23 10:18:00,
2013-01-23 02:23:00,25.5,18.3,29.96,NE,45,0.0,0.0,74,0.00,,,0.00,WUHU21623XXSP,2013-01-23 10:23:00,
2013-01-23 02:29:00,25.3,18.1,29.96,NE,45,0.0,0.0,74,0.00,,,0.00,WUHU21623XXSP,2013-01-23 10:29:00,
2013-01-23 02:34:00,25.5,18.6,29.96,NE,45,0.0,0.0,75,0.00,,,0.00,WUHU21623XXSP,2013-01-23 10:34:00,
2013-01-23 02:39:00,25.5,18.6,29.96,NE,45,0.0,0.0,75,0.00,,,0.00,WUHU21623XXSP,2013-01-23 10:39:00,
2013-01-23 02:44:00,25.5,18.6,29.96,NE,45,0.0,0.0,75,0.00,,,0.00,WUHU21623XXSP,2013-01-23 10:44:00,
2013-01-23 02:50:00,25.5,18.6,29.96,NE,45,0.0,0.0,75,0.00,,,0.00,WUHU21623XXSP,2013-01-23 10:50:00,
2013-01-23 02:55:00,25.5,18.6,29.95,NE,45,0.0,0.0,75,0.00,,,0.00,WUHU21623XXSP,2013-01-23 10:55:00,
2013-01-23 03:00:00,25.5,18.6,29.95,NE,45,0.0,0.0,75,0.00,,,0.00,WUHU21623XXSP,2013-01-23 11:00:00,
2013-01-23 03:05:00,25.7,18.8,29.95,NE,45,0.0,0.0,75,0.00,,,0.00,WUHU21623XXSP,2013-01-23 11:05:00,
2013-01-23 03:11:00,25.7,18.8,29.95,NE,45,0.0,0.0,75,0.00,,,0.00,WUHU21623XXSP,2013-01-23 11:11:00,
2013-01-23 03:16:00,25.7,18.8,29.94,NE,45,0.0,0.0,75,0.00,,,0.00,WUHU21623XXSP,2013-01-23 11:16:00,
2013-01-23 03:21:00,25.7,18.8,29.94,North,0,0.0,0.0,75,0.00,,,0.00,WUHU21623XXSP,2013-01-23 11:21:00,
2013-01-23 03:27:00,25.7,18.8,29.95,North,0,0.0,0.0,75,0.00,,,0.00,WUHU21623XXSP,2013-01-23 11:27:00,
2013-01-23 03:32:00,25.7,18.8,29.95,North,0,0.0,0.0,75,0.00,,,0.00,WUHU21623XXSP,2013-01-23 11:32:00,
2013-01-23 03:38:00,25.7,18.8,29.95,North,0,0.0,0.0,75,0.00,,,0.00,WUHU21623XXSP,2013-01-23 11:38:00,
2013-01-23 03:43:00,25.9,19.0,29.95,North,0,0.0,0.0,75,0.00,,,0.00,WUHU21623XXSP,2013-01-23 11:43:00,
2013-01-23 03:48:00,25.9,19.0,29.95,North,0,0.0,0.0,75,0.00,,,0.00,WUHU21623XXSP,2013-01-23 11:48:00,
2013-01-23 03:53:00,25.9,19.0,29.94,North,0,0.0,0.0,75,0.00,,,0.00,WUHU21623XXSP,2013-01-23 11:53:00,
2013-01-23 03:59:00,25.9,19.0,29.94,North,0,0.0,0.0,75,0.00,,,0.00,WUHU21623XXSP,2013-01-23 11:59:00,
2013-01-23 04:04:00,26.1,19.1,29.94,North,0,0.0,0.0,75,0.00,,,0.00,WUHU21623XXSP,2013-01-23 12:04:00,
2013-01-23 04:09:00,26.1,19.1,29.94,North,0,0.0,0.0,75,0.00,,,0.00,WUHU21623XXSP,2013-01-23 12:09:00,
2013-01-23 04:14:00,26.1,19.1,29.93,North,0,0.0,0.0,75,0.00,,,0.00,WUHU21623XXSP,2013-01-23 12:14:00,
2013-01-23 04:19:00,26.1,19.1,29.93,North,0,0.0,0.0,75,0.00,,,0.00,WUHU21623XXSP,2013-01-23 12:19:00,
2013-01-23 04:25:00,26.2,19.3,29.93,North,0,0.0,0.0,75,0.00,,,0.00,WUHU21623XXSP,2013-01-23 12:25:00,
2013-01-23 04:30:00,26.2,19.3,29.93,North,0,0.0,0.0,75,0.00,,,0.00,WUHU21623XXSP,2013-01-23 12:30:00,
2013-01-23 04:35:00,26.2,19.3,29.93,North,0,0.0,0.0,75,0.00,,,0.00,WUHU21623XXSP,2013-01-23 12:35:00,
2013-01-23 04:40:00,26.4,19.5,29.93,North,0,0.0,0.0,75,0.00,,,0.00,WUHU21623XXSP,2013-01-23 12:40:00,
2013-01-23 04:46:00,26.4,19.5,29.92,North,0,0.0,0.0,75,0.00,,,0.00,WUHU21623XXSP,2013-01-23 12:46:00,
2013-01-23 04:51:00,26.4,19.5,29.91,North,0,0.0,0.0,75,0.00,,,0.00,WUHU21623XXSP,2013-01-23 12:51:00,
2013-01-23 04:56:00,26.4,19.5,29.91,North,0,0.0,0.0,75,0.00,,,0.00,WUHU21623XXSP,2013-01-23 12:56:00,
2013-01-23 05:02:00,26.4,19.8,29.92,North,0,0.0,0.0,76,0.00,,,0.00,WUHU21623XXSP,2013-01-23 13:02:00,
2013-01-23 05:07:00,26.4,19.8,29.92,North,0,0.0,0.0,76,0.00,,,0.00,WUHU21623XXSP,2013-01-23 13:07:00,
2013-01-23 05:12:00,26.4,19.8,29.93,North,0,0.0,0.0,76,0.00,,,0.00,WUHU21623XXSP,2013-01-23 13:12:00,
2013-01-23 05:17:00,26.6,20.0,29.93,North,0,0.0,0.0,76,0.00,,,0.00,WUHU21623XXSP,2013-01-23 13:17:00,
2013-01-23 05:23:00,26.6,20.0,29.92,North,0,0.0,0.0,76,0.00,,,0.00,WUHU21623XXSP,2013-01-23 13:23:00,
2013-01-23 05:28:00,26.6,20.0,29.92,North,0,0.0,0.0,76,0.00,,,0.00,WUHU21623XXSP,2013-01-23 13:28:00,
2013-01-23 05:33:00,26.8,20.2,29.92,North,0,0.0,0.0,76,0.00,,,0.00,WUHU21623XXSP,2013-01-23 13:33:00,
2013-01-23 05:38:00,26.8,20.2,29.92,North,0,0.0,0.0,76,0.00,,,0.00,WUHU21623XXSP,2013-01-23 13:38:00,
2013-01-23 05:44:00,26.8,20.2,29.92,North,0,0.0,0.0,76,0.00,,,0.00,WUHU21623XXSP,2013-01-23 13:44:00,
2013-01-23 05:49:00,27.0,20.0,29.90,North,0,0.0,0.0,75,0.00,,,0.00,WUHU21623XXSP,2013-01-23 13:49:00,
2013-01-23 05:54:00,27.0,20.0,29.91,North,0,0.0,0.0,75,0.00,,,0.00,WUHU21623XXSP,2013-01-23 13:54:00,
2013-01-23 05:59:00,27.1,20.2,29.91,North,0,0.0,0.0,75,0.00,,,0.00,WUHU21623XXSP,2013-01-23 13:59:00,
2013-01-23 06:04:00,27.1,20.2,29.91,North,0,0.0,0.0,75,0.00,,,0.00,WUHU21623XXSP,2013-01-23 14:04:00,
2013-01-23 06:10:00,27.1,20.2,29.91,North,0,0.0,0.0,75,0.00,,,0.00,WUHU21623XXSP,2013-01-23 14:10:00,
2013-01-23 06:15:00,27.1,20.2,29.91,North,0,0.0,0.0,75,0.00,,,0.00,WUHU21623XXSP,2013-01-23 14:15:00,
2013-01-23 06:20:00,27.1,20.2,29.91,North,0,0.0,0.0,75,0.00,,,0.00,WUHU21623XXSP,2013-01-23 14:20:00,
2013-01-23 06:25:00,27.1,20.2,29.91,North,0,0.0,0.0,75,0.00,,,0.00,WUHU21623XXSP,2013-01-23 14:25:00,
2013-01-23 06:31:00,27.1,20.2,29.91,North,0,0.0,0.0,75,0.00,,,0.00,WUHU21623XXSP,2013-01-23 14:31:00,
2013-01-23 06:36:00,27.1,20.2,29.91,North,0,0.0,0.0,75,0.00,,,0.00,WUHU21623XXSP,2013-01-23 14:36:00,
2013-01-23 06:41:00,27.1,20.2,29.91,North,0,0.0,0.0,75,0.00,,,0.00,WUHU21623XXSP,2013-01-23 14:41:00,
2013-01-23 06:46:00,27.1,20.2,29.91,North,0,0.0,0.0,75,0.00,,,0.00,WUHU21623XXSP,2013-01-23 14:46:00,
2013-01-23 06:52:00,27.1,20.2,29.91,North,0,0.0,0.0,75,0.00,,,0.00,WUHU21623XXSP,2013-01-23 14:52:00,
2013-01-23 06:57:00,27.3,20.4,29.91,North,0,0.0,0.0,75,0.00,,,0.00,WUHU21623XXSP,2013-01-23 14:57:00,
2013-01-23 07:02:00,27.3,20.4,29.91,North,0,0.0,0.0,75,0.00,,,0.00,WUHU21623XXSP,2013-01-23 15:02:00,
2013-01-23 07:07:00,27.3,20.4,29.91,North,0,0.0,0.0,75,0.00,,,0.00,WUHU21623XXSP,2013-01-23 15:07:00,
2013-01-23 07:12:00,27.3,20.4,29.90,North,0,0.0,0.0,75,0.00,,,0.00,WUHU21623XXSP,2013-01-23 15:12:00,
2013-01-23 07:18:00,27.3,20.4,29.90,North,0,0.0,0.0,75,0.00,,,0.00,WUHU21623XXSP,2013-01-23 15:18:00,
2013-01-23 07:23:00,27.3,20.4,29.90,North,0,0.0,0.0,75,0.00,,,0.00,WUHU21623XXSP,2013-01-23 15:23:00,
2013-01-23 07:28:00,27.3,20.4,29.90,North,0,0.0,0.0,75,0.00,,,0.00,WUHU21623XXSP,2013-01-23 15:28:00,
2013-01-23 07:33:00,27.3,20.4,29.91,North,0,0.0,0.0,75,0.00,,,0.00,WUHU21623XXSP,2013-01-23 15:33:00,
2013-01-23 07:39:00,27.3,20.4,29.90,North,0,0.0,0.0,75,0.00,,,0.00,WUHU21623XXSP,2013-01-23 15:39:00,
2013-01-23 07:44:00,27.3,20.4,29.90,North,0,0.0,0.0,75,0.00,,,0.00,WUHU21623XXSP,2013-01-23 15:44:00,
2013-01-23 07:49:00,27.3,20.4,29.90,North,0,0.0,0.0,75,0.00,,,0.00,WUHU21623XXSP,2013-01-23 15:49:00,
2013-01-23 07:54:00,27.3,20.4,29.90,North,0,0.0,0.0,75,0.00,,,0.00,WUHU21623XXSP,2013-01-23 15:54:00,
2013-01-23 08:00:00,27.3,20.4,29.89,SW,225,0.0,0.0,75,0.00,,,0.00,WUHU21623XXSP,2013-01-23 16:00:00,
2013-01-23 08:05:00,27.5,20.6,29.89,SW,225,0.0,0.0,75,0.00,,,0.00,WUHU21623XXSP,2013-01-23 16:05:00,
2013-01-23 08:10:00,27.5,20.6,29.89,SW,225,0.0,0.0,75,0.00,,,0.00,WUHU21623XXSP,2013-01-23 16:10:00,
2013-01-23 08:15:00,27.5,20.6,29.89,SW,225,0.0,0.0,75,0.00,,,0.00,WUHU21623XXSP,2013-01-23 16:15:00,
2013-01-23 08:20:00,27.7,21.1,29.89,SW,225,0.0,0.0,76,0.00,,,0.00,WUHU21623XXSP,2013-01-23 16:20:00,
2013-01-23 08:26:00,27.7,21.1,29.89,SW,225,0.0,0.0,76,0.00,,,0.00,WUHU21623XXSP,2013-01-23 16:26:00,
2013-01-23 08:31:00,27.7,21.1,29.89,SW,225,0.0,0.0,76,0.00,,,0.00,WUHU21623XXSP,2013-01-23 16:31:00,
2013-01-23 08:36:00,27.9,20.9,29.89,SW,225,0.0,0.0,75,0.00,,,0.00,WUHU21623XXSP,2013-01-23 16:36:00,
2013-01-23 08:41:00,28.0,21.1,29.88,SW,225,0.0,0.0,75,0.00,,,0.00,WUHU21623XXSP,2013-01-23 16:41:00,
2013-01-23 08:47:00,28.0,21.1,29.88,SW,225,0.0,0.0,75,0.00,,,0.00,WUHU21623XXSP,2013-01-23 16:47:00,
2013-01-23 08:52:00,28.2,21.3,29.88,NE,45,0.0,0.0,75,0.00,,,0.00,WUHU21623XXSP,2013-01-23 16:52:00,
2013-01-23 08:57:00,28.2,21.3,29.88,NE,45,0.0,0.0,75,0.00,,,0.00,WUHU21623XXSP,2013-01-23 16:57:00,
2013-01-23 09:02:00,28.2,21.3,29.88,NNE,22,0.0,0.0,75,0.00,,,0.00,WUHU21623XXSP,2013-01-23 17:02:00,
2013-01-23 09:08:00,28.2,21.3,29.88,NNE,22,0.0,0.0,75,0.00,,,0.00,WUHU21623XXSP,2013-01-23 17:08:00,
2013-01-23 09:13:00,28.2,21.3,29.88,NNE,22,0.0,0.0,75,0.00,,,0.00,WUHU21623XXSP,2013-01-23 17:13:00,
2013-01-23 09:18:00,28.2,21.3,29.88,NNE,22,0.0,0.0,75,0.00,,,0.00,WUHU21623XXSP,2013-01-23 17:18:00,
2013-01-23 09:23:00,28.2,21.3,29.88,NE,45,0.0,0.0,75,0.00,,,0.00,WUHU21623XXSP,2013-01-23 17:23:00,
2013-01-23 09:29:00,28.6,21.6,29.88,NNE,22,0.0,0.0,75,0.00,,,0.00,WUHU21623XXSP,2013-01-23 17:29:00,
2013-01-23 09:34:00,28.4,21.5,29.88,NNE,22,0.0,0.0,75,0.00,,,0.00,WUHU21623XXSP,2013-01-23 17:34:00,
2013-01-23 09:39:00,28.4,21.2,29.88,NNE,22,0.0,0.0,74,0.00,,,0.00,WUHU21623XXSP,2013-01-23 17:39:00,
2013-01-23 09:44:00,28.6,21.3,29.88,NNE,22,0.0,0.0,74,0.00,,,0.00,WUHU21623XXSP,2013-01-23 17:44:00,
2013-01-23 09:49:00,28.8,21.5,29.88,NNE,22,0.0,0.0,74,0.00,,,0.00,WUHU21623XXSP,2013-01-23 17:49:00,
2013-01-23 09:55:00,28.8,21.5,29.87,NE,45,0.0,0.0,74,0.00,,,0.00,WUHU21623XXSP,2013-01-23 17:55:00,
2013-01-23 10:00:00,28.8,21.5,29.88,NNW,337,0.0,0.0,74,0.00,,,0.00,WUHU21623XXSP,2013-01-23 18:00:00,
2013-01-23 10:05:00,29.1,21.8,29.87,NE,45,0.0,0.0,74,0.00,,,0.00,WUHU21623XXSP,2013-01-23 18:05:00,
2013-01-23 10:10:00,29.1,21.8,29.88,WNW,292,0.0,0.0,74,0.00,,,0.00,WUHU21623XXSP,2013-01-23 18:10:00,
2013-01-23 10:16:00,29.1,21.8,29.88,NE,45,0.0,0.0,74,0.00,,,0.00,WUHU21623XXSP,2013-01-23 18:16:00,
2013-01-23 10:21:00,29.3,22.0,29.88,West,270,0.0,0.0,74,0.00,,,0.00,WUHU21623XXSP,2013-01-23 18:21:00,
2013-01-23 10:26:00,29.3,22.0,29.88,NE,45,0.0,0.0,74,0.00,,,0.00,WUHU21623XXSP,2013-01-23 18:26:00,
2013-01-23 10:31:00,29.5,22.2,29.88,NE,45,0.0,0.0,74,0.00,,,0.00,WUHU21623XXSP,2013-01-23 18:31:00,
2013-01-23 10:37:00,29.7,22.3,29.88,NE,45,0.0,0.0,74,0.00,,,0.00,WUHU21623XXSP,2013-01-23 18:37:00,
2013-01-23 10:42:00,29.7,22.0,29.88,NE,45,0.0,0.0,73,0.00,,,0.00,WUHU21623XXSP,2013-01-23 18:42:00,
2013-01-23 10:47:00,29.7,22.0,29.88,NW,315,0.0,0.0,73,0.00,,,0.00,WUHU21623XXSP,2013-01-23 18:47:00,
2013-01-23 10:52:00,29.7,22.0,29.88,NE,45,0.0,0.0,73,0.00,,,0.00,WUHU21623XXSP,2013-01-23 18:52:00,
2013-01-23 10:58:00,30.0,22.4,29.88,North,0,0.0,0.0,73,0.00,,,0.00,WUHU21623XXSP,2013-01-23 18:58:00,
2013-01-23 11:03:00,29.8,22.2,29.88,NNE,22,0.0,0.0,73,0.00,,,0.00,WUHU21623XXSP,2013-01-23 19:03:00,
2013-01-23 11:08:00,30.0,22.4,29.88,North,0,0.0,0.0,73,0.00,,,0.00,WUHU21623XXSP,2013-01-23 19:08:00,
2013-01-23 11:13:00,30.0,22.4,29.87,NNE,22,6.3,6.3,73,0.00,,,0.00,WUHU21623XXSP,2013-01-23 19:13:00,
2013-01-23 11:18:00,30.2,22.5,29.86,ENE,67,0.0,6.3,73,0.00,,,0.00,WUHU21623XXSP,2013-01-23 19:18:00,
2013-01-23 11:24:00,30.4,22.7,29.87,SE,135,0.0,0.0,73,0.00,,,0.00,WUHU21623XXSP,2013-01-23 19:24:00,
2013-01-23 11:29:00,31.3,23.9,29.86,SE,135,0.0,0.0,74,0.00,,,0.00,WUHU21623XXSP,2013-01-23 19:29:00,
2013-01-23 11:34:00,32.7,25.3,29.85,ESE,112,4.7,4.7,74,0.00,,,0.00,WUHU21623XXSP,2013-01-23 19:34:00,
2013-01-23 11:39:00,34.9,27.0,29.84,ENE,67,4.9,4.9,73,0.00,,,0.00,WUHU21623XXSP,2013-01-23 19:39:00,
2013-01-23 11:45:00,38.5,29.2,29.84,NNE,22,2.0,4.9,69,0.00,,,0.00,WUHU21623XXSP,2013-01-23 19:45:00,
2013-01-23 11:50:00,40.3,29.8,29.84,NE,45,0.0,3.4,66,0.00,,,0.00,WUHU21623XXSP,2013-01-23 19:50:00,
2013-01-23 11:55:00,39.0,27.0,29.84,NNW,337,2.0,5.8,62,0.00,,,0.00,WUHU21623XXSP,2013-01-23 19:55:00,
2013-01-23 12:00:00,37.4,25.6,29.84,North,0,1.3,2.0,62,0.00,,,0.00,WUHU21623XXSP,2013-01-23 20:00:00,
2013-01-23 12:06:00,35.8,24.4,29.84,WNW,292,0.0,4.3,63,0.00,,,0.00,WUHU21623XXSP,2013-01-23 20:06:00,
2013-01-23 12:11:00,35.2,24.3,29.84,NNE,22,0.0,4.3,64,0.00,,,0.00,WUHU21623XXSP,2013-01-23 20:11:00,
2013-01-23 12:16:00,34.3,23.7,29.83,North,0,6.3,6.3,65,0.00,,,0.00,WUHU21623XXSP,2013-01-23 20:16:00,
2013-01-23 12:21:00,34.2,23.5,29.83,NE,45,0.0,6.3,65,0.00,,,0.00,WUHU21623XXSP,2013-01-23 20:21:00,
2013-01-23 12:26:00,33.8,23.5,29.83,NE,45,6.5,6.5,66,0.00,,,0.00,WUHU21623XXSP,2013-01-23 20:26:00,
2013-01-23 12:32:00,33.6,23.7,29.83,West,270,0.0,6.5,67,0.00,,,0.00,WUHU21623XXSP,2013-01-23 20:32:00,
2013-01-23 12:37:00,33.8,23.9,29.83,West,270,5.4,5.4,67,0.00,,,0.00,WUHU21623XXSP,2013-01-23 20:37:00,
2013-01-23 12:42:00,34.2,24.6,29.82,ENE,67,0.0,5.4,68,0.00,,,0.00,WUHU21623XXSP,2013-01-23 20:42:00,
2013-01-23 12:47:00,34.3,24.8,29.83,NNW,337,6.3,6.3,68,0.00,,,0.00,WUHU21623XXSP,2013-01-23 20:47:00,
2013-01-23 12:53:00,34.9,25.0,29.82,West,270,0.0,6.3,67,0.00,,,0.00,WUHU21623XXSP,2013-01-23 20:53:00,
2013-01-23 12:58:00,35.4,25.5,29.82,ENE,67,2.9,6.3,67,0.00,,,0.00,WUHU21623XXSP,2013-01-23 20:58:00,
2013-01-23 13:03:00,36.3,26.8,29.82,NE,45,1.6,2.9,68,0.00,,,0.00,WUHU21623XXSP,2013-01-23 21:03:00,
2013-01-23 13:08:00,37.0,27.1,29.82,WNW,292,0.0,3.4,67,0.00,,,0.00,WUHU21623XXSP,2013-01-23 21:08:00,
2013-01-23 13:14:00,37.4,27.1,29.82,South,180,2.7,3.4,66,0.00,,,0.00,WUHU21623XXSP,2013-01-23 21:14:00,
2013-01-23 13:19:00,39.4,30.0,29.83,SSW,202,5.8,5.8,69,0.00,,,0.00,WUHU21623XXSP,2013-01-23 21:19:00,
2013-01-23 13:24:00,40.8,29.9,29.82,SSW,202,0.0,5.8,65,0.00,,,0.00,WUHU21623XXSP,2013-01-23 21:24:00,
2013-01-23 13:29:00,41.5,31.4,29.81,ENE,67,2.2,5.6,67,0.00,,,0.00,WUHU21623XXSP,2013-01-23 21:29:00,
2013-01-23 13:34:00,42.6,32.8,29.81,SE,135,4.9,6.7,68,0.00,,,0.00,WUHU21623XXSP,2013-01-23 21:34:00,
2013-01-23 13:40:00,44.1,33.8,29.81,SE,135,5.4,6.7,67,0.00,,,0.00,WUHU21623XXSP,2013-01-23 21:40:00,
2013-01-23 13:45:00,44.8,34.1,29.81,NNE,22,0.0,8.5,66,0.00,,,0.00,WUHU21623XXSP,2013-01-23 21:45:00,
2013-01-23 13:50:00,45.7,34.6,29.81,South,180,3.6,8.5,65,0.00,,,0.00,WUHU21623XXSP,2013-01-23 21:50:00,
2013-01-23 13:55:00,46.0,34.9,29.82,SE,135,3.1,7.8,65,0.00,,,0.00,WUHU21623XXSP,2013-01-23 21:55:00,
2013-01-23 14:01:00,46.0,34.5,29.82,SSE,157,4.0,6.0,64,0.00,,,0.00,WUHU21623XXSP,2013-01-23 22:01:00,
2013-01-23 14:06:00,46.0,34.5,29.82,SSE,157,12.8,12.8,64,0.00,,,0.00,WUHU21623XXSP,2013-01-23 22:06:00,
2013-01-23 14:11:00,46.2,34.7,29.82,SSE,157,8.1,12.8,64,0.00,,,0.00,WUHU21623XXSP,2013-01-23 22:11:00,
2013-01-23 14:16:00,46.2,34.7,29.81,SSE,157,9.8,10.1,64,0.00,,,0.00,WUHU21623XXSP,2013-01-23 22:16:00,
2013-01-23 14:22:00,46.0,34.5,29.82,South,180,7.6,9.8,64,0.00,,,0.00,WUHU21623XXSP,2013-01-23 22:22:00,
2013-01-23 14:27:00,45.7,34.2,29.81,SE,135,4.3,7.6,64,0.00,,,0.00,WUHU21623XXSP,2013-01-23 22:27:00,
2013-01-23 14:32:00,45.7,34.2,29.81,SE,135,8.1,8.1,64,0.00,,,0.00,WUHU21623XXSP,2013-01-23 22:32:00,
2013-01-23 14:37:00,45.7,34.2,29.81,ESE,112,5.8,8.1,64,0.00,,,0.00,WUHU21623XXSP,2013-01-23 22:37:00,
2013-01-23 14:43:00,45.5,34.0,29.82,SSE,157,4.7,7.2,64,0.00,,,0.00,WUHU21623XXSP,2013-01-23 22:43:00,
2013-01-23 14:48:00,45.7,34.2,29.82,WSW,247,2.9,7.6,64,0.00,,,0.00,WUHU21623XXSP,2013-01-23 22:48:00,
2013-01-23 14:53:00,45.7,34.2,29.82,SE,135,3.1,7.6,64,0.00,,,0.00,WUHU21623XXSP,2013-01-23 22:53:00,
2013-01-23 14:58:00,45.7,34.2,29.82,SE,135,1.1,5.8,64,0.00,,,0.00,WUHU21623XXSP,2013-01-23 22:58:00,
2013-01-23 15:04:00,45.7,34.2,29.82,SE,135,13.4,13.4,64,0.00,,,0.00,WUHU21623XXSP,2013-01-23 23:04:00,
2013-01-23 15:09:00,45.7,34.6,29.82,SSE,157,1.8,13.4,65,0.00,,,0.00,WUHU21623XXSP,2013-01-23 23:09:00,
2013-01-23 15:14:00,45.5,34.4,29.82,SSE,157,7.8,7.8,65,0.00,,,0.00,WUHU21623XXSP,2013-01-23 23:14:00,
2013-01-23 15:19:00,45.5,34.4,29.82,West,270,3.6,7.8,65,0.00,,,0.00,WUHU21623XXSP,2013-01-23 23:19:00,
2013-01-23 15:25:00,45.7,34.6,29.83,SW,225,5.6,5.6,65,0.00,,,0.00,WUHU21623XXSP,2013-01-23 23:25:00,
2013-01-23 15:30:00,46.0,34.9,29.83,ENE,67,0.0,5.6,65,0.00,,,0.00,WUHU21623XXSP,2013-01-23 23:30:00,
2013-01-23 15:35:00,45.9,34.7,29.83,West,270,0.0,2.9,65,0.00,,,0.00,WUHU21623XXSP,2013-01-23 23:35:00,
2013-01-23 15:40:00,45.7,34.6,29.83,SSE,157,2.0,2.9,65,0.00,,,0.00,WUHU21623XXSP,2013-01-23 23:40:00,
2013-01-23 15:45:00,45.7,34.6,29.83,WNW,292,0.0,2.0,65,0.00,,,0.00,WUHU21623XXSP,2013-01-23 23:45:00,
2013-01-23 15:51:00,45.7,34.6,29.83,ENE,67,0.0,3.6,65,0.00,,,0.00,WUHU21623XXSP,2013-01-23 23:51:00,
2013-01-23 15:56:00,45.5,34.4,29.83,NNE,22,0.0,0.0,65,0.00,,,0.00,WUHU21623XXSP,2013-01-23 23:56:00,
2013-01-23 16:01:00,45.3,33.8,29.83,North,0,0.0,6.9,64,0.00,,,0.00,WUHU21623XXSP,2013-01-24 00:01:00,
2013-01-23 16:06:00,45.1,33.3,29.84,North,0,2.9,6.9,63,0.00,,,0.00,WUHU21623XXSP,2013-01-24 00:06:00,
2013-01-23 16:12:00,44.8,32.6,29.84,NNE,22,0.9,3.6,62,0.00,,,0.00,WUHU21623XXSP,2013-01-24 00:12:00,
2013-01-23 16:17:00,44.4,32.2,29.84,NE,45,0.7,3.6,62,0.00,,,0.00,WUHU21623XXSP,2013-01-24 00:17:00,
2013-01-23 16:22:00,43.9,31.7,29.85,NNE,22,3.1,4.0,62,0.00,,,0.00,WUHU21623XXSP,2013-01-24 00:22:00,
2013-01-23 16:27:00,43.2,31.4,29.84,NNE,22,1.3,4.0,63,0.00,,,0.00,WUHU21623XXSP,2013-01-24 00:27:00,
2013-01-23 16:33:00,42.6,30.8,29.85,NNE,22,3.8,3.8,63,0.00,,,0.00,WUHU21623XXSP,2013-01-24 00:33:00,
2013-01-23 16:38:00,42.1,30.3,29.85,NNW,337,3.6,3.8,63,0.00,,,0.00,WUHU21623XXSP,2013-01-24 00:38:00,
2013-01-23 16:43:00,41.5,30.2,29.86,NE,45,1.8,3.6,64,0.00,,,0.00,WUHU21623XXSP,2013-01-24 00:43:00,
2013-01-23 16:48:00,40.8,29.6,29.86,NNW,337,0.0,1.8,64,0.00,,,0.00,WUHU21623XXSP,2013-01-24 00:48:00,
2013-01-23 16:53:00,40.3,29.0,29.86,NNE,22,4.3,6.0,64,0.00,,,0.00,WUHU21623XXSP,2013-01-24 00:53:00,
2013-01-23 16:59:00,39.6,28.7,29.86,NE,45,0.0,6.0,65,0.00,,,0.00,WUHU21623XXSP,2013-01-24 00:59:00,
2013-01-23 17:04:00,39.0,28.1,29.87,NNE,22,0.0,1.3,65,0.00,,,0.00,WUHU21623XXSP,2013-01-24 01:04:00,
2013-01-23 17:09:00,38.5,28.0,29.87,NNE,22,0.0,0.0,66,0.00,,,0.00,WUHU21623XXSP,2013-01-24 01:09:00,
2013-01-23 17:14:00,38.3,27.9,29.87,NNE,22,0.0,0.0,66,0.00,,,0.00,WUHU21623XXSP,2013-01-24 01:14:00,
2013-01-23 17:20:00,37.9,27.6,29.87,NNE,22,0.0,0.0,66,0.00,,,0.00,WUHU21623XXSP,2013-01-24 01:20:00,
2013-01-23 17:25:00,37.4,27.4,29.87,NE,45,0.0,0.0,67,0.00,,,0.00,WUHU21623XXSP,2013-01-24 01:25:00,
2013-01-23 17:30:00,37.2,27.6,29.88,North,0,0.0,0.0,68,0.00,,,0.00,WUHU21623XXSP,2013-01-24 01:30:00,
2013-01-23 17:35:00,37.0,27.5,29.88,ENE,67,2.0,4.9,68,0.00,,,0.00,WUHU21623XXSP,2013-01-24 01:35:00,
2013-01-23 17:41:00,36.5,27.3,29.89,NNE,22,2.7,3.1,69,0.00,,,0.00,WUHU21623XXSP,2013-01-24 01:41:00,
2013-01-23 17:46:00,36.3,27.5,29.89,NE,45,0.0,2.7,70,0.00,,,0.00,WUHU21623XXSP,2013-01-24 01:46:00,
2013-01-23 17:51:00,36.0,27.1,29.89,NNE,22,0.0,0.0,70,0.00,,,0.00,WUHU21623XXSP,2013-01-24 01:51:00,
2013-01-23 17:56:00,35.8,27.0,29.90,NE,45,0.0,0.0,70,0.00,,,0.00,WUHU21623XXSP,2013-01-24 01:56:00,
2013-01-23 18:02:00,35.6,27.1,29.89,NE,45,0.0,0.0,71,0.00,,,0.00,WUHU21623XXSP,2013-01-24 02:02:00,
2013-01-23 18:07:00,35.4,26.9,29.90,NE,45,0.0,0.0,71,0.00,,,0.00,WUHU21623XXSP,2013-01-24 02:07:00,
2013-01-23 18:12:00,35.2,26.7,29.91,NE,45,0.0,0.0,71,0.00,,,0.00,WUHU21623XXSP,2013-01-24 02:12:00,
2013-01-23 18:17:00,35.2,26.7,29.91,NE,45,0.0,0.0,71,0.00,,,0.00,WUHU21623XXSP,2013-01-24 02:17:00,
2013-01-23 18:22:00,35.2,26.7,29.91,NE,45,0.0,0.0,71,0.00,,,0.00,WUHU21623XXSP,2013-01-24 02:22:00,
2013-01-23 18:28:00,35.2,27.1,29.91,NE,45,0.0,0.0,72,0.00,,,0.00,WUHU21623XXSP,2013-01-24 02:28:00,
2013-01-23 18:33:00,35.1,26.9,29.91,NE,45,0.0,0.0,72,0.00,,,0.00,WUHU21623XXSP,2013-01-24 02:33:00,
2013-01-23 18:38:00,34.9,26.7,29.92,NE,45,0.0,0.0,72,0.00,,,0.00,WUHU21623XXSP,2013-01-24 02:38:00,
2013-01-23 18:43:00,34.9,26.7,29.92,NE,45,0.0,0.0,72,0.00,,,0.00,WUHU21623XXSP,2013-01-24 02:43:00,
2013-01-23 18:49:00,34.7,26.5,29.92,NE,45,0.0,0.0,72,0.00,,,0.00,WUHU21623XXSP,2013-01-24 02:49:00,
2013-01-23 18:54:00,34.5,26.7,29.92,SSE,157,0.0,0.0,73,0.00,,,0.00,WUHU21623XXSP,2013-01-24 02:54:00,
2013-01-23 18:59:00,34.5,26.7,29.92,SSE,157,0.0,0.0,73,0.00,,,0.00,WUHU21623XXSP,2013-01-24 02:59:00,
2013-01-23 19:04:00,34.3,26.5,29.93,SSE,157,0.0,0.0,73,0.00,,,0.00,WUHU21623XXSP,2013-01-24 03:04:00,
2013-01-23 19:10:00,34.3,26.5,29.93,SSE,157,0.0,0.0,73,0.00,,,0.00,WUHU21623XXSP,2013-01-24 03:10:00,
2013-01-23 19:15:00,34.3,26.5,29.94,SSE,157,0.0,0.0,73,0.00,,,0.00,WUHU21623XXSP,2013-01-24 03:15:00,
2013-01-23 19:20:00,34.3,26.5,29.94,SSE,157,0.0,0.0,73,0.00,,,0.00,WUHU21623XXSP,2013-01-24 03:20:00,
2013-01-23 19:25:00,34.3,26.5,29.94,SSE,157,0.0,0.0,73,0.00,,,0.00,WUHU21623XXSP,2013-01-24 03:25:00,
2013-01-23 19:30:00,34.5,27.0,29.94,SSE,157,0.0,0.0,74,0.00,,,0.00,WUHU21623XXSP,2013-01-24 03:30:00,
2013-01-23 19:36:00,34.5,27.0,29.94,SSE,157,0.0,0.0,74,0.00,,,0.00,WUHU21623XXSP,2013-01-24 03:36:00,
2013-01-23 19:41:00,34.5,27.0,29.94,SSE,157,0.0,0.0,74,0.00,,,0.00,WUHU21623XXSP,2013-01-24 03:41:00,
2013-01-23 19:46:00,34.3,27.1,29.95,West,270,0.0,0.9,75,0.00,,,0.00,WUHU21623XXSP,2013-01-24 03:46:00,
2013-01-23 19:51:00,34.3,27.1,29.95,SSE,157,0.0,1.3,75,0.00,,,0.00,WUHU21623XXSP,2013-01-24 03:51:00,
2013-01-23 19:57:00,34.7,27.8,29.96,WSW,247,0.0,1.3,76,0.00,,,0.00,WUHU21623XXSP,2013-01-24 03:57:00,
2013-01-23 20:02:00,34.9,28.0,29.97,SW,225,0.0,0.0,76,0.00,,,0.00,WUHU21623XXSP,2013-01-24 04:02:00,
2013-01-23 20:07:00,35.2,28.4,29.96,SW,225,0.0,0.9,76,0.00,,,0.00,WUHU21623XXSP,2013-01-24 04:07:00,
2013-01-23 20:12:00,35.2,28.4,29.96,SSE,157,0.0,1.8,76,0.00,,,0.00,WUHU21623XXSP,2013-01-24 04:12:00,
2013-01-23 20:18:00,35.4,28.5,29.97,SSE,157,0.0,1.8,76,0.00,,,0.00,WUHU21623XXSP,2013-01-24 04:18:00,
2013-01-23 20:23:00,35.4,28.5,29.97,SSE,157,0.0,0.0,76,0.00,,,0.00,WUHU21623XXSP,2013-01-24 04:23:00,
2013-01-23 20:28:00,35.4,28.5,29.97,SSE,157,0.0,0.0,76,0.00,,,0.00,WUHU21623XXSP,2013-01-24 04:28:00,
2013-01-23 20:33:00,35.4,28.5,29.97,WSW,247,0.0,0.0,76,0.00,,,0.00,WUHU21623XXSP,2013-01-24 04:33:00,
2013-01-23 20:39:00,35.4,28.5,29.97,WSW,247,0.0,0.0,76,0.00,,,0.00,WUHU21623XXSP,2013-01-24 04:39:00,
2013-01-23 20:44:00,35.4,28.5,29.97,WSW,247,0.0,0.0,76,0.00,,,0.00,WUHU21623XXSP,2013-01-24 04:44:00,
2013-01-23 20:49:00,35.4,28.5,29.98,SSW,202,0.0,0.0,76,0.00,,,0.00,WUHU21623XXSP,2013-01-24 04:49:00,
2013-01-23 20:54:00,35.4,28.5,29.99,SSW,202,0.0,0.0,76,0.00,,,0.00,WUHU21623XXSP,2013-01-24 04:54:00,
2013-01-23 20:59:00,35.4,28.5,29.99,SSW,202,0.0,0.0,76,0.00,,,0.00,WUHU21623XXSP,2013-01-24 04:59:00,
2013-01-23 21:05:00,35.4,28.5,29.99,SSW,202,0.0,0.0,76,0.00,,,0.00,WUHU21623XXSP,2013-01-24 05:05:00,
2013-01-23 21:10:00,35.4,28.5,29.99,SSW,202,0.0,0.0,76,0.00,,,0.00,WUHU21623XXSP,2013-01-24 05:10:00,
2013-01-23 21:15:00,35.2,28.4,29.99,SSW,202,0.0,0.0,76,0.00,,,0.00,WUHU21623XXSP,2013-01-24 05:15:00,
2013-01-23 21:20:00,35.2,28.7,29.99,SSW,202,0.0,0.0,77,0.00,,,0.00,WUHU21623XXSP,2013-01-24 05:20:00,
2013-01-23 21:26:00,35.2,28.7,29.99,SSW,202,0.0,0.0,77,0.00,,,0.00,WUHU21623XXSP,2013-01-24 05:26:00,
2013-01-23 21:31:00,34.9,28.3,29.99,SSW,202,0.0,0.0,77,0.00,,,0.00,WUHU21623XXSP,2013-01-24 05:31:00,
2013-01-23 21:36:00,35.2,28.7,29.99,SSW,202,0.0,0.0,77,0.00,,,0.00,WUHU21623XXSP,2013-01-24 05:36:00,
2013-01-23 21:41:00,35.2,28.7,29.99,South,180,0.0,0.0,77,0.00,,,0.00,WUHU21623XXSP,2013-01-24 05:41:00,
2013-01-23 21:47:00,35.2,28.7,30.00,South,180,0.0,0.0,77,0.00,,,0.00,WUHU21623XXSP,2013-01-24 05:47:00,
2013-01-23 21:52:00,35.2,28.7,30.00,South,180,0.0,0.0,77,0.00,,,0.00,WUHU21623XXSP,2013-01-24 05:52:00,
2013-01-23 21:57:00,35.2,28.7,30.01,South,180,0.0,0.0,77,0.00,,,0.00,WUHU21623XXSP,2013-01-24 05:57:00,
2013-01-23 22:02:00,35.2,28.7,30.01,South,180,0.0,0.0,77,0.00,,,0.00,WUHU21623XXSP,2013-01-24 06:02:00,
2013-01-23 22:08:00,35.2,28.7,30.01,South,180,0.0,0.0,77,0.00,,,0.00,WUHU21623XXSP,2013-01-24 06:08:00,
2013-01-23 22:13:00,35.2,28.7,30.01,South,180,0.0,0.0,77,0.00,,,0.00,WUHU21623XXSP,2013-01-24 06:13:00,
2013-01-23 22:18:00,35.2,28.7,30.02,South,180,0.0,0.0,77,0.00,,,0.00,WUHU21623XXSP,2013-01-24 06:18:00,
2013-01-23 22:23:00,35.2,28.7,30.02,South,180,0.0,0.0,77,0.00,,,0.00,WUHU21623XXSP,2013-01-24 06:23:00,
2013-01-23 22:28:00,35.2,28.7,30.02,South,180,0.0,0.0,77,0.00,,,0.00,WUHU21623XXSP,2013-01-24 06:28:00,
2013-01-23 22:34:00,35.2,28.7,30.02,South,180,0.0,0.0,77,0.00,,,0.00,WUHU21623XXSP,2013-01-24 06:34:00,
2013-01-23 22:39:00,34.9,28.3,30.02,South,180,0.0,0.0,77,0.00,,,0.00,WUHU21623XXSP,2013-01-24 06:39:00,
2013-01-23 22:44:00,34.9,28.3,30.02,South,180,0.0,0.0,77,0.00,,,0.00,WUHU21623XXSP,2013-01-24 06:44:00,
2013-01-23 22:49:00,34.9,28.3,30.02,South,180,0.0,0.0,77,0.00,,,0.00,WUHU21623XXSP,2013-01-24 06:49:00,
2013-01-23 22:55:00,34.9,28.3,30.03,South,180,0.0,0.0,77,0.00,,,0.00,WUHU21623XXSP,2013-01-24 06:55:00,
2013-01-23 23:00:00,34.7,28.1,30.03,South,180,0.0,0.0,77,0.00,,,0.00,WUHU21623XXSP,2013-01-24 07:00:00,
2013-01-23 23:05:00,34.5,28.0,30.03,South,180,0.0,0.0,77,0.00,,,0.00,WUHU21623XXSP,2013-01-24 07:05:00,
2013-01-23 23:10:00,34.3,27.8,30.04,South,180,0.0,0.0,77,0.00,,,0.00,WUHU21623XXSP,2013-01-24 07:10:00,
2013-01-23 23:16:00,34.3,27.8,30.04,South,180,0.0,0.0,77,0.00,,,0.00,WUHU21623XXSP,2013-01-24 07:16:00,
2013-01-23 23:21:00,34.3,27.8,30.05,South,180,0.0,0.0,77,0.00,,,0.00,WUHU21623XXSP,2013-01-24 07:21:00,
2013-01-23 23:26:00,34.3,27.8,30.05,South,180,0.0,0.0,77,0.00,,,0.00,WUHU21623XXSP,2013-01-24 07:26:00,
2013-01-23 23:31:00,34.3,27.8,30.04,South,180,0.0,0.0,77,0.00,,,0.00,WUHU21623XXSP,2013-01-24 07:31:00,
2013-01-23 23:37:00,34.3,27.8,30.05,South,180,0.0,0.0,77,0.00,,,0.00,WUHU21623XXSP,2013-01-24 07:37:00,
2013-01-23 23:42:00,34.3,27.8,30.05,South,180,0.0,0.0,77,0.00,,,0.00,WUHU21623XXSP,2013-01-24 07:42:00,
2013-01-23 23:47:00,34.3,27.8,30.05,South,180,0.0,0.0,77,0.00,,,0.00,WUHU21623XXSP,2013-01-24 07:47:00,
2013-01-23 23:52:00,34.3,27.8,30.05,South,180,0.0,0.0,77,0.00,,,0.00,WUHU21623XXSP,2013-01-24 07:52:00,
2013-01-23 23:58:00,34.2,27.6,30.06,South,180,0.0,0.0,77,0.00,,,0.00,WUHU21623XXSP,2013-01-24 07:58:00,